createdAt,value
2023-02-14T00:54:56.868Z,21.80
2023-02-14T00:55:57.830Z,21.24
2023-02-14T00:56:57.827Z,21.15
2023-02-14T00:57:57.814Z,21.09
2023-02-14T00:58:57.811Z,21.04
2023-02-14T00:59:57.808Z,20.99
2023-02-14T01:00:58.213Z,20.97
2023-02-14T01:01:57.782Z,20.99
2023-02-14T01:02:57.874Z,20.98
2023-02-14T01:03:57.762Z,20.94
2023-02-14T01:04:57.752Z,20.94
2023-02-14T01:05:57.742Z,20.93
2023-02-14T01:06:57.749Z,20.94
2023-02-14T01:07:57.731Z,20.92
2023-02-14T01:08:57.712Z,20.93
2023-02-14T01:09:57.702Z,20.91
2023-02-14T01:10:58.075Z,20.93
2023-02-14T01:11:57.685Z,20.92
2023-02-14T01:12:57.682Z,20.92
2023-02-14T01:13:57.669Z,20.92
2023-02-14T01:14:57.660Z,20.90
2023-02-14T01:15:57.659Z,20.90
2023-02-14T01:16:57.638Z,20.91
2023-02-14T01:17:57.629Z,20.91
2023-02-14T01:18:57.628Z,20.92
2023-02-14T01:19:57.620Z,20.89
2023-02-14T01:20:58.085Z,20.91
2023-02-14T01:21:57.606Z,20.90
2023-02-14T01:22:57.591Z,20.93
2023-02-14T01:23:57.578Z,20.92
2023-02-14T01:24:57.566Z,20.91
2023-02-14T01:25:57.561Z,20.91
2023-02-14T01:26:57.580Z,20.90
2023-02-14T01:27:57.549Z,20.89
2023-02-14T01:28:57.544Z,20.90
2023-02-14T01:29:57.556Z,20.91
2023-02-14T01:30:57.950Z,20.91
2023-02-14T01:31:57.569Z,20.91
2023-02-14T01:32:57.526Z,20.91
2023-02-14T01:33:57.488Z,20.90
2023-02-14T01:34:57.485Z,20.92
2023-02-14T01:35:57.471Z,20.92
2023-02-14T01:36:57.467Z,20.92
2023-02-14T01:37:57.453Z,20.91
2023-02-14T01:38:57.442Z,20.92
2023-02-14T01:39:57.454Z,20.93
2023-02-14T01:40:57.781Z,20.92
2023-02-14T01:41:57.420Z,20.93
2023-02-14T01:42:57.449Z,20.92
2023-02-14T01:43:57.436Z,20.90
2023-02-14T01:44:57.398Z,20.91
2023-02-14T01:45:57.537Z,20.90
2023-02-14T01:46:57.371Z,20.92
2023-02-14T01:47:57.370Z,20.89
2023-02-14T01:48:57.358Z,20.91
2023-02-14T01:49:57.345Z,20.91
2023-02-14T01:50:57.723Z,20.90
2023-02-14T01:51:57.346Z,20.91
2023-02-14T01:52:57.331Z,20.91
2023-02-14T01:53:57.314Z,20.93
2023-02-14T01:54:57.306Z,20.93
2023-02-14T01:55:57.292Z,20.92
2023-02-14T01:56:57.289Z,20.92
2023-02-14T01:57:57.281Z,20.92
2023-02-14T01:58:57.302Z,20.90
2023-02-14T01:59:57.260Z,20.94
2023-02-14T02:00:57.611Z,20.91
2023-02-14T02:01:57.292Z,20.90
2023-02-14T02:02:57.241Z,20.92
2023-02-14T02:03:57.225Z,20.91
2023-02-14T02:04:57.215Z,20.91
2023-02-14T02:05:57.225Z,20.91
2023-02-14T02:06:57.215Z,20.90
2023-02-14T02:07:57.227Z,20.91
2023-02-14T02:08:57.176Z,20.89
2023-02-14T02:09:57.168Z,20.91
2023-02-14T02:10:57.399Z,20.91
2023-02-14T02:11:57.151Z,20.90
2023-02-14T02:12:57.150Z,20.92
2023-02-14T02:13:57.147Z,20.91
2023-02-14T02:14:57.149Z,20.91
2023-02-14T02:15:57.116Z,20.92
2023-02-14T02:16:57.208Z,20.89
2023-02-14T02:17:57.095Z,20.92
2023-02-14T02:18:57.116Z,20.89
2023-02-14T02:19:57.081Z,20.89
2023-02-14T02:20:57.284Z,20.91
2023-02-14T02:21:57.067Z,20.89
2023-02-14T02:22:57.056Z,20.89
2023-02-14T02:23:57.042Z,20.88
2023-02-14T02:24:57.035Z,20.90
2023-02-14T02:25:57.040Z,20.90
2023-02-14T02:26:57.018Z,20.90
2023-02-14T02:27:57.013Z,20.86
2023-02-14T02:28:57.002Z,20.89
2023-02-14T02:29:57.088Z,20.87
2023-02-14T02:30:57.425Z,20.90
2023-02-14T02:31:57.096Z,20.92
2023-02-14T02:32:56.966Z,20.89
2023-02-14T02:33:56.967Z,20.90
2023-02-14T02:34:56.949Z,20.90
2023-02-14T02:35:56.941Z,20.89
2023-02-14T02:36:56.928Z,20.88
2023-02-14T02:37:56.920Z,20.92
2023-02-14T02:38:56.911Z,20.90
2023-02-14T02:39:56.902Z,20.89
2023-02-14T02:40:57.827Z,20.89
2023-02-14T02:41:56.884Z,20.89
2023-02-14T02:42:56.879Z,20.88
2023-02-14T02:43:56.882Z,20.88
2023-02-14T02:44:56.855Z,20.89
2023-02-14T02:45:56.923Z,20.90
2023-02-14T02:46:56.873Z,20.91
2023-02-14T02:47:56.827Z,20.89
2023-02-14T02:48:56.822Z,20.90
2023-02-14T02:49:56.811Z,20.90
2023-02-14T02:50:57.053Z,20.89
2023-02-14T02:51:56.795Z,20.90
2023-02-14T02:52:56.791Z,20.89
2023-02-14T02:53:56.772Z,20.89
2023-02-14T02:54:56.772Z,20.90
2023-02-14T02:55:56.769Z,20.89
2023-02-14T02:56:56.747Z,20.89
2023-02-14T02:57:56.974Z,20.90
2023-02-14T02:58:56.732Z,20.89
2023-02-14T02:59:56.727Z,20.91
2023-02-14T03:00:56.843Z,20.89
2023-02-14T03:01:56.706Z,20.90
2023-02-14T03:02:56.732Z,20.89
2023-02-14T03:03:56.970Z,20.90
2023-02-14T03:04:57.520Z,20.90
2023-02-14T03:05:56.674Z,20.88
2023-02-14T03:06:56.656Z,20.89
2023-02-14T03:07:56.646Z,20.89
2023-02-14T03:08:56.644Z,20.88
2023-02-14T03:09:56.630Z,20.88
2023-02-14T03:10:56.633Z,20.89
2023-02-14T03:11:56.613Z,20.88
2023-02-14T03:12:56.611Z,20.89
2023-02-14T03:13:56.598Z,20.90
2023-02-14T03:14:56.587Z,20.87
2023-02-14T03:15:56.699Z,20.89
2023-02-14T03:16:56.573Z,20.89
2023-02-14T03:17:56.564Z,20.87
2023-02-14T03:18:56.585Z,20.90
2023-02-14T03:19:56.550Z,20.88
2023-02-14T03:20:56.541Z,20.89
2023-02-14T03:21:56.528Z,20.89
2023-02-14T03:22:56.514Z,20.89
2023-02-14T03:23:56.503Z,20.89
2023-02-14T03:24:56.509Z,20.88
2023-02-14T03:25:56.487Z,20.88
2023-02-14T03:26:56.480Z,20.89
2023-02-14T03:27:56.477Z,20.89
2023-02-14T03:28:56.461Z,20.89
2023-02-14T03:29:56.478Z,20.89
2023-02-14T03:30:56.674Z,20.89
2023-02-14T03:31:56.695Z,20.90
2023-02-14T03:32:56.430Z,20.89
2023-02-14T03:33:56.417Z,20.89
2023-02-14T03:34:56.624Z,20.91
2023-02-14T03:35:56.398Z,20.89
2023-02-14T03:36:56.390Z,20.90
2023-02-14T03:37:56.378Z,20.89
2023-02-14T03:38:56.376Z,20.88
2023-02-14T03:39:56.369Z,20.88
2023-02-14T03:40:56.363Z,20.91
2023-02-14T03:41:56.360Z,20.89
2023-02-14T03:42:56.360Z,20.89
2023-02-14T03:43:56.329Z,20.88
2023-02-14T03:44:56.376Z,20.90
2023-02-14T03:45:56.312Z,20.88
2023-02-14T03:46:56.307Z,20.90
2023-02-14T03:47:56.300Z,20.89
2023-02-14T03:48:56.282Z,20.89
2023-02-14T03:49:56.280Z,20.89
2023-02-14T03:50:56.286Z,20.88
2023-02-14T03:51:56.271Z,20.88
2023-02-14T03:52:56.254Z,20.88
2023-02-14T03:53:56.237Z,20.89
2023-02-14T03:54:56.497Z,20.90
2023-02-14T03:55:56.989Z,20.90
2023-02-14T03:56:56.217Z,20.90
2023-02-14T03:57:56.207Z,20.89
2023-02-14T03:58:56.200Z,20.91
2023-02-14T03:59:56.182Z,20.88
2023-02-14T04:00:56.196Z,20.89
2023-02-14T04:01:57.079Z,20.87
2023-02-14T04:02:56.291Z,20.89
2023-02-14T04:03:56.348Z,20.87
2023-02-14T04:04:56.291Z,20.87
2023-02-14T04:05:56.261Z,20.86
2023-02-14T04:06:56.277Z,20.88
2023-02-14T04:07:56.242Z,20.88
2023-02-14T04:08:56.235Z,20.87
2023-02-14T04:09:56.238Z,20.89
2023-02-14T04:10:56.250Z,20.87
2023-02-14T04:11:56.216Z,20.89
2023-02-14T04:12:56.200Z,20.87
2023-02-14T04:13:56.187Z,20.88
2023-02-14T04:14:56.191Z,20.88
2023-02-14T04:15:56.220Z,20.88
2023-02-14T04:16:56.168Z,20.88
2023-02-14T04:17:56.152Z,20.85
2023-02-14T04:18:56.146Z,20.87
2023-02-14T04:19:56.139Z,20.88
2023-02-14T04:20:56.133Z,20.88
2023-02-14T04:21:56.121Z,20.87
2023-02-14T04:22:56.131Z,20.88
2023-02-14T04:23:56.098Z,20.87
2023-02-14T04:24:56.093Z,20.87
2023-02-14T04:25:56.092Z,20.87
2023-02-14T04:26:56.081Z,20.90
2023-02-14T04:27:56.083Z,20.89
2023-02-14T04:28:56.053Z,20.89
2023-02-14T04:29:56.086Z,20.87
2023-02-14T04:30:56.119Z,20.86
2023-02-14T04:31:56.159Z,20.88
2023-02-14T04:32:56.022Z,20.87
2023-02-14T04:33:56.012Z,20.87
2023-02-14T04:34:55.997Z,20.86
2023-02-14T04:35:55.988Z,20.87
2023-02-14T04:36:55.983Z,20.87
2023-02-14T04:37:55.973Z,20.88
2023-02-14T04:38:56.044Z,20.87
2023-02-14T04:39:55.965Z,20.86
2023-02-14T04:40:55.955Z,20.87
2023-02-14T04:41:55.950Z,20.88
2023-02-14T04:42:55.928Z,20.86
2023-02-14T04:43:55.914Z,20.88
2023-02-14T04:44:55.908Z,20.87
2023-02-14T04:45:55.904Z,20.87
2023-02-14T04:46:55.926Z,20.87
2023-02-14T04:47:55.892Z,20.86
2023-02-14T04:48:55.874Z,20.86
2023-02-14T04:49:55.862Z,20.88
2023-02-14T04:50:55.858Z,20.88
2023-02-14T04:51:55.842Z,20.87
2023-02-14T04:52:55.839Z,20.86
2023-02-14T04:53:55.833Z,20.88
2023-02-14T04:54:55.844Z,20.87
2023-02-14T04:55:55.816Z,20.86
2023-02-14T04:56:55.798Z,20.90
2023-02-14T04:57:55.788Z,20.87
2023-02-14T04:58:55.786Z,20.86
2023-02-14T04:59:55.773Z,20.87
2023-02-14T05:00:55.822Z,20.88
2023-02-14T05:01:55.825Z,20.85
2023-02-14T05:02:55.752Z,20.85
2023-02-14T05:03:56.510Z,20.86
2023-02-14T05:04:55.725Z,20.88
2023-02-14T05:05:55.720Z,20.85
2023-02-14T05:06:55.705Z,20.87
2023-02-14T05:07:55.748Z,20.86
2023-02-14T05:08:55.689Z,20.85
2023-02-14T05:09:55.687Z,20.85
2023-02-14T05:10:55.707Z,20.87
2023-02-14T05:11:55.664Z,20.85
2023-02-14T05:12:55.653Z,20.86
2023-02-14T05:13:55.658Z,20.85
2023-02-14T05:14:55.636Z,20.87
2023-02-14T05:15:55.693Z,20.87
2023-02-14T05:16:55.617Z,20.88
2023-02-14T05:17:55.614Z,20.84
2023-02-14T05:18:55.597Z,20.85
2023-02-14T05:19:55.589Z,20.86
2023-02-14T05:20:55.587Z,20.86
2023-02-14T05:21:55.571Z,20.86
2023-02-14T05:22:55.562Z,20.85
2023-02-14T05:23:55.557Z,20.85
2023-02-14T05:24:55.547Z,20.86
2023-02-14T05:25:55.540Z,20.85
2023-02-14T05:26:55.570Z,20.86
2023-02-14T05:27:55.519Z,20.85
2023-02-14T05:28:55.520Z,20.85
2023-02-14T05:29:55.560Z,20.85
2023-02-14T05:30:55.534Z,20.84
2023-02-14T05:31:55.592Z,20.86
2023-02-14T05:32:55.474Z,20.84
2023-02-14T05:33:55.462Z,20.85
2023-02-14T05:34:55.450Z,20.85
2023-02-14T05:35:55.450Z,20.85
2023-02-14T05:36:55.443Z,20.85
2023-02-14T05:37:55.447Z,20.85
2023-02-14T05:38:55.420Z,20.86
2023-02-14T05:39:55.403Z,20.85
2023-02-14T05:40:55.422Z,20.86
2023-02-14T05:41:55.395Z,20.85
2023-02-14T05:42:55.407Z,20.87
2023-02-14T05:43:55.378Z,20.85
2023-02-14T05:44:55.369Z,20.85
2023-02-14T05:45:55.445Z,20.86
2023-02-14T05:46:56.016Z,20.84
2023-02-14T05:47:55.334Z,20.82
2023-02-14T05:48:55.337Z,20.86
2023-02-14T05:49:55.321Z,20.85
2023-02-14T05:50:55.314Z,20.86
2023-02-14T05:51:55.307Z,20.84
2023-02-14T05:52:55.309Z,20.85
2023-02-14T05:53:55.295Z,20.84
2023-02-14T05:54:55.275Z,20.83
2023-02-14T05:55:55.269Z,20.85
2023-02-14T05:56:55.261Z,20.85
2023-02-14T05:57:55.261Z,20.86
2023-02-14T05:58:55.277Z,20.86
2023-02-14T05:59:55.237Z,20.86
2023-02-14T06:00:55.234Z,20.85
2023-02-14T06:01:55.289Z,20.86
2023-02-14T06:02:55.209Z,20.87
2023-02-14T06:03:55.194Z,20.84
2023-02-14T06:05:02.039Z,20.84
2023-02-14T06:06:55.174Z,20.84
2023-02-14T06:07:55.165Z,20.84
2023-02-14T06:08:55.161Z,20.85
2023-02-14T06:09:55.142Z,20.85
2023-02-14T06:10:55.136Z,20.84
2023-02-14T06:11:55.444Z,20.85
2023-02-14T06:12:55.117Z,20.83
2023-02-14T06:13:55.113Z,20.86
2023-02-14T06:14:55.132Z,20.86
2023-02-14T06:15:56.038Z,20.85
2023-02-14T06:16:55.174Z,20.84
2023-02-14T06:17:55.096Z,20.83
2023-02-14T06:18:55.073Z,20.85
2023-02-14T06:19:56.038Z,20.83
2023-02-14T06:20:55.050Z,20.84
2023-02-14T06:21:55.048Z,20.84
2023-02-14T06:22:55.035Z,20.83
2023-02-14T06:23:55.018Z,20.83
2023-02-14T06:24:55.012Z,20.84
2023-02-14T06:25:55.000Z,20.83
2023-02-14T06:26:54.998Z,20.85
2023-02-14T06:27:54.984Z,20.84
2023-02-14T06:28:54.976Z,20.83
2023-02-14T06:29:54.975Z,20.83
2023-02-14T06:30:55.163Z,20.85
2023-02-14T06:31:55.121Z,20.85
2023-02-14T06:32:54.950Z,20.85
2023-02-14T06:33:54.927Z,20.86
2023-02-14T06:34:54.918Z,20.90
2023-02-14T06:35:54.915Z,20.89
2023-02-14T06:36:54.904Z,20.87
2023-02-14T06:37:54.904Z,20.85
2023-02-14T06:38:54.880Z,20.88
2023-02-14T06:39:54.882Z,20.88
2023-02-14T06:40:54.863Z,20.89
2023-02-14T06:41:54.854Z,20.89
2023-02-14T06:42:54.848Z,20.87
2023-02-14T06:43:54.845Z,20.86
2023-02-14T06:44:55.548Z,20.88
2023-02-14T06:45:54.892Z,20.87
2023-02-14T06:46:54.840Z,20.88
2023-02-14T06:47:54.808Z,20.91
2023-02-14T06:48:54.799Z,20.90
2023-02-14T06:49:54.784Z,20.90
2023-02-14T06:50:54.780Z,20.88
2023-02-14T06:51:54.773Z,20.88
2023-02-14T06:52:54.759Z,20.87
2023-02-14T06:53:54.751Z,20.89
2023-02-14T06:54:54.740Z,20.88
2023-02-14T06:55:54.729Z,20.88
2023-02-14T06:56:54.723Z,20.89
2023-02-14T06:57:54.716Z,20.86
2023-02-14T06:58:54.709Z,20.88
2023-02-14T06:59:54.700Z,20.88
2023-02-14T07:00:54.693Z,20.87
2023-02-14T07:01:54.675Z,20.87
2023-02-14T07:02:54.746Z,20.87
2023-02-14T07:03:55.556Z,20.86
2023-02-14T07:04:54.650Z,20.84
2023-02-14T07:05:54.656Z,20.84
2023-02-14T07:06:54.637Z,20.85
2023-02-14T07:07:54.621Z,20.85
2023-02-14T07:08:54.610Z,20.86
2023-02-14T07:09:54.610Z,20.86
2023-02-14T07:10:54.604Z,20.87
2023-02-14T07:11:54.603Z,20.86
2023-02-14T07:12:54.585Z,20.86
2023-02-14T07:13:54.570Z,20.86
2023-02-14T07:14:54.557Z,20.88
2023-02-14T07:15:54.618Z,20.88
2023-02-14T07:16:54.549Z,20.88
2023-02-14T07:17:54.531Z,20.86
2023-02-14T07:18:54.552Z,20.86
2023-02-14T07:19:54.525Z,20.87
2023-02-14T07:20:54.507Z,20.88
2023-02-14T07:22:54.487Z,20.86
2023-02-14T07:23:54.483Z,20.89
2023-02-14T07:24:54.467Z,20.88
2023-02-14T07:25:54.461Z,20.85
2023-02-14T07:26:54.456Z,20.86
2023-02-14T07:27:54.450Z,20.86
2023-02-14T07:28:54.440Z,20.86
2023-02-14T07:29:54.501Z,20.87
2023-02-14T07:30:54.548Z,20.88
2023-02-14T07:31:54.631Z,20.88
2023-02-14T07:32:54.406Z,20.84
2023-02-14T07:33:54.388Z,20.85
2023-02-14T07:34:54.402Z,20.84
2023-02-14T07:35:54.373Z,20.85
2023-02-14T07:36:54.363Z,20.83
2023-02-14T07:37:54.364Z,20.85
2023-02-14T07:38:54.346Z,20.86
2023-02-14T07:39:54.343Z,20.84
2023-02-14T07:40:55.068Z,20.83
2023-02-14T07:41:54.316Z,20.82
2023-02-14T07:42:54.306Z,20.83
2023-02-14T07:43:54.309Z,20.84
2023-02-14T07:44:54.290Z,20.84
2023-02-14T07:45:54.349Z,20.87
2023-02-14T07:46:54.272Z,20.87
2023-02-14T07:47:54.272Z,20.88
2023-02-14T07:48:54.257Z,20.86
2023-02-14T07:49:54.253Z,20.84
2023-02-14T07:50:54.266Z,20.86
2023-02-14T07:51:54.259Z,20.86
2023-02-14T07:52:54.217Z,20.84
2023-02-14T07:53:54.209Z,20.86
2023-02-14T07:54:54.216Z,20.86
2023-02-14T07:55:54.198Z,20.85
2023-02-14T07:56:54.183Z,20.84
2023-02-14T07:57:54.180Z,20.84
2023-02-14T07:58:54.168Z,20.83
2023-02-14T07:59:54.151Z,20.84
2023-02-14T08:00:54.155Z,20.86
2023-02-14T08:01:54.253Z,20.84
2023-02-14T08:02:54.127Z,20.85
2023-02-14T08:03:54.116Z,20.86
2023-02-14T08:04:54.192Z,20.86
2023-02-14T08:05:54.105Z,20.83
2023-02-14T08:06:54.126Z,20.86
2023-02-14T08:07:54.085Z,20.86
2023-02-14T08:08:54.066Z,20.84
2023-02-14T08:09:54.063Z,20.85
2023-02-14T08:10:54.052Z,20.84
2023-02-14T08:11:54.055Z,20.82
2023-02-14T08:12:54.038Z,20.83
2023-02-14T08:13:54.021Z,20.82
2023-02-14T08:14:54.023Z,20.82
2023-02-14T08:15:54.094Z,20.83
2023-02-14T08:16:54.000Z,20.81
2023-02-14T08:17:54.006Z,20.82
2023-02-14T08:18:54.569Z,20.82
2023-02-14T08:19:53.972Z,20.80
2023-02-14T08:20:53.962Z,20.81
2023-02-14T08:21:53.954Z,20.80
2023-02-14T08:22:53.972Z,20.80
2023-02-14T08:23:53.944Z,20.78
2023-02-14T08:24:54.087Z,20.79
2023-02-14T08:25:53.932Z,20.79
2023-02-14T08:26:53.909Z,20.77
2023-02-14T08:27:53.903Z,20.78
2023-02-14T08:28:53.887Z,20.79
2023-02-14T08:29:53.903Z,20.78
2023-02-14T08:30:53.975Z,20.77
2023-02-14T08:31:54.006Z,20.76
2023-02-14T08:32:53.924Z,20.77
2023-02-14T08:33:53.849Z,20.77
2023-02-14T08:34:53.842Z,20.77
2023-02-14T08:35:53.826Z,20.76
2023-02-14T08:36:53.812Z,20.76
2023-02-14T08:37:53.804Z,20.78
2023-02-14T08:38:53.838Z,20.77
2023-02-14T08:39:53.791Z,20.75
2023-02-14T08:40:53.779Z,20.77
2023-02-14T08:41:53.770Z,20.77
2023-02-14T08:42:53.759Z,20.76
2023-02-14T08:43:53.756Z,20.75
2023-02-14T08:44:53.746Z,20.74
2023-02-14T08:45:53.771Z,20.76
2023-02-14T08:46:53.798Z,20.74
2023-02-14T08:47:53.748Z,20.76
2023-02-14T08:48:53.728Z,20.75
2023-02-14T08:49:53.751Z,20.75
2023-02-14T08:50:53.725Z,20.76
2023-02-14T08:51:53.684Z,20.75
2023-02-14T08:52:53.742Z,20.74
2023-02-14T08:53:53.666Z,20.73
2023-02-14T08:54:53.711Z,20.73
2023-02-14T08:55:53.654Z,20.72
2023-02-14T08:56:53.668Z,20.74
2023-02-14T08:57:53.663Z,20.75
2023-02-14T08:58:53.616Z,20.75
2023-02-14T08:59:53.608Z,20.75
2023-02-14T09:00:53.673Z,20.73
2023-02-14T09:01:53.598Z,20.74
2023-02-14T09:02:53.579Z,20.74
2023-02-14T09:03:53.766Z,20.73
2023-02-14T09:04:53.562Z,20.76
2023-02-14T09:05:53.561Z,20.74
2023-02-14T09:06:53.541Z,20.73
2023-02-14T09:07:53.534Z,20.71
2023-02-14T09:08:53.583Z,20.71
2023-02-14T09:09:53.534Z,20.73
2023-02-14T09:10:53.605Z,20.75
2023-02-14T09:11:53.504Z,20.73
2023-02-14T09:12:53.489Z,20.75
2023-02-14T09:13:53.553Z,20.74
2023-02-14T09:14:53.537Z,20.74
2023-02-14T09:15:53.465Z,20.73
2023-02-14T09:16:53.537Z,20.74
2023-02-14T09:17:53.570Z,20.74
2023-02-14T09:18:53.459Z,20.71
2023-02-14T09:19:53.438Z,20.73
2023-02-14T09:20:53.425Z,20.72
2023-02-14T09:21:53.418Z,20.73
2023-02-14T09:22:53.403Z,20.72
2023-02-14T09:23:53.391Z,20.72
2023-02-14T09:24:53.384Z,20.73
2023-02-14T09:25:53.377Z,20.73
2023-02-14T09:26:53.405Z,20.72
2023-02-14T09:27:53.359Z,20.73
2023-02-14T09:28:53.360Z,20.74
2023-02-14T09:29:53.370Z,20.73
2023-02-14T09:30:54.544Z,20.73
2023-02-14T09:31:53.453Z,20.73
2023-02-14T09:32:53.321Z,20.75
2023-02-14T09:33:53.309Z,20.71
2023-02-14T09:34:53.292Z,20.74
2023-02-14T09:35:53.284Z,20.72
2023-02-14T09:36:53.279Z,20.72
2023-02-14T09:37:53.269Z,20.72
2023-02-14T09:38:53.258Z,20.71
2023-02-14T09:39:53.254Z,20.69
2023-02-14T09:40:53.241Z,20.70
2023-02-14T09:41:53.233Z,20.71
2023-02-14T09:42:53.251Z,20.71
2023-02-14T09:43:53.219Z,20.69
2023-02-14T09:44:53.225Z,20.71
2023-02-14T09:45:53.250Z,20.70
2023-02-14T09:46:53.184Z,20.70
2023-02-14T09:47:53.177Z,20.68
2023-02-14T09:48:53.265Z,20.71
2023-02-14T09:49:53.236Z,20.70
2023-02-14T09:50:53.156Z,20.72
2023-02-14T09:51:53.136Z,20.71
2023-02-14T09:52:53.136Z,20.73
2023-02-14T09:53:53.122Z,20.71
2023-02-14T09:54:53.115Z,20.70
2023-02-14T09:55:53.113Z,20.71
2023-02-14T09:56:53.092Z,20.72
2023-02-14T09:57:53.273Z,20.71
2023-02-14T09:58:53.105Z,20.71
2023-02-14T09:59:53.063Z,20.73
2023-02-14T10:00:53.094Z,20.71
2023-02-14T10:01:53.154Z,20.71
2023-02-14T10:02:53.041Z,20.71
2023-02-14T10:03:53.027Z,20.71
2023-02-14T10:04:53.023Z,20.72
2023-02-14T10:05:53.020Z,20.72
2023-02-14T10:06:53.026Z,20.71
2023-02-14T10:07:53.012Z,20.71
2023-02-14T10:08:52.986Z,20.72
2023-02-14T10:09:52.979Z,20.72
2023-02-14T10:10:52.982Z,20.71
2023-02-14T10:11:52.954Z,20.72
2023-02-14T10:12:52.960Z,20.70
2023-02-14T10:13:52.981Z,20.69
2023-02-14T10:14:52.989Z,20.71
2023-02-14T10:15:52.926Z,20.73
2023-02-14T10:16:52.945Z,20.72
2023-02-14T10:17:52.933Z,20.71
2023-02-14T10:18:52.913Z,20.72
2023-02-14T10:19:52.884Z,20.71
2023-02-14T10:20:52.879Z,20.71
2023-02-14T10:21:52.878Z,20.70
2023-02-14T10:22:52.859Z,20.70
2023-02-14T10:23:52.854Z,20.70
2023-02-14T10:24:52.844Z,20.69
2023-02-14T10:25:52.837Z,20.71
2023-02-14T10:26:52.827Z,20.70
2023-02-14T10:27:52.855Z,20.69
2023-02-14T10:28:53.619Z,20.69
2023-02-14T10:29:52.851Z,20.69
2023-02-14T10:30:52.804Z,20.70
2023-02-14T10:31:52.828Z,20.70
2023-02-14T10:32:52.778Z,20.69
2023-02-14T10:33:52.774Z,20.70
2023-02-14T10:34:52.750Z,20.70
2023-02-14T10:35:52.809Z,20.71
2023-02-14T10:36:52.740Z,20.72
2023-02-14T10:37:52.737Z,20.71
2023-02-14T10:38:53.625Z,20.72
2023-02-14T10:39:53.119Z,20.70
2023-02-14T10:40:52.693Z,20.72
2023-02-14T10:41:53.631Z,20.73
2023-02-14T10:42:53.624Z,20.72
2023-02-14T10:43:52.698Z,20.72
2023-02-14T10:44:52.664Z,20.71
2023-02-14T10:45:52.713Z,20.72
2023-02-14T10:46:52.651Z,20.73
2023-02-14T10:47:52.633Z,20.72
2023-02-14T10:48:52.626Z,20.72
2023-02-14T10:49:52.613Z,20.72
2023-02-14T10:50:52.615Z,20.72
2023-02-14T10:51:53.125Z,20.73
2023-02-14T10:52:52.590Z,20.72
2023-02-14T10:53:52.626Z,20.70
2023-02-14T10:54:52.574Z,20.73
2023-02-14T10:55:52.581Z,20.72
2023-02-14T10:56:52.555Z,20.71
2023-02-14T10:57:52.543Z,20.72
2023-02-14T10:58:52.541Z,20.71
2023-02-14T10:59:52.552Z,20.72
2023-02-14T11:00:52.595Z,20.72
2023-02-14T11:01:52.517Z,20.71
2023-02-14T11:02:52.533Z,20.72
2023-02-14T11:03:52.586Z,20.71
2023-02-14T11:04:52.486Z,20.73
2023-02-14T11:05:52.481Z,20.71
2023-02-14T11:06:52.468Z,20.73
2023-02-14T11:07:52.476Z,20.73
2023-02-14T11:08:52.457Z,20.72
2023-02-14T11:09:52.445Z,20.73
2023-02-14T11:10:52.432Z,20.74
2023-02-14T11:11:52.423Z,20.73
2023-02-14T11:12:52.417Z,20.71
2023-02-14T11:14:52.400Z,20.75
2023-02-14T11:15:52.411Z,20.75
2023-02-14T11:16:52.448Z,20.72
2023-02-14T11:17:52.364Z,20.71
2023-02-14T11:18:52.362Z,20.74
2023-02-14T11:19:52.347Z,20.70
2023-02-14T11:21:52.368Z,20.72
2023-02-14T11:22:53.132Z,20.72
2023-02-14T11:23:52.342Z,20.73
2023-02-14T11:24:52.301Z,20.77
2023-02-14T11:25:52.303Z,20.74
2023-02-14T11:26:52.284Z,20.73
2023-02-14T11:27:52.283Z,20.73
2023-02-14T11:28:52.276Z,20.74
2023-02-14T11:29:52.413Z,20.75
2023-02-14T11:30:52.429Z,20.73
2023-02-14T11:31:52.507Z,20.75
2023-02-14T11:32:52.229Z,20.72
2023-02-14T11:33:52.221Z,20.75
2023-02-14T11:34:52.218Z,20.75
2023-02-14T11:35:52.203Z,20.75
2023-02-14T11:36:52.200Z,20.77
2023-02-14T11:37:52.187Z,20.74
2023-02-14T11:38:52.180Z,20.74
2023-02-14T11:39:52.166Z,20.72
2023-02-14T11:40:52.161Z,20.73
2023-02-14T11:41:52.151Z,20.74
2023-02-14T11:43:02.246Z,20.72
2023-02-14T11:43:52.136Z,20.74
2023-02-14T11:44:52.129Z,20.76
2023-02-14T11:45:52.161Z,20.74
2023-02-14T11:46:53.965Z,20.73
2023-02-14T11:47:52.134Z,20.73
2023-02-14T11:48:52.089Z,20.75
2023-02-14T11:49:52.081Z,20.74
2023-02-14T11:50:52.070Z,20.73
2023-02-14T11:51:52.072Z,20.75
2023-02-14T11:52:52.053Z,20.71
2023-02-14T11:53:52.046Z,20.75
2023-02-14T11:54:52.037Z,20.74
2023-02-14T11:55:52.027Z,20.73
2023-02-14T11:56:52.021Z,20.74
2023-02-14T11:57:52.009Z,20.74
2023-02-14T11:58:52.001Z,20.76
2023-02-14T11:59:52.005Z,20.76
2023-02-14T12:00:51.985Z,20.75
2023-02-14T12:01:51.971Z,20.74
2023-02-14T12:02:52.026Z,20.75
2023-02-14T12:03:52.037Z,20.75
2023-02-14T12:04:51.943Z,20.75
2023-02-14T12:05:51.939Z,20.75
2023-02-14T12:06:51.930Z,20.75
2023-02-14T12:07:51.926Z,20.75
2023-02-14T12:08:51.911Z,20.76
2023-02-14T12:09:52.654Z,20.77
2023-02-14T12:10:51.896Z,20.75
2023-02-14T12:11:52.655Z,20.77
2023-02-14T12:12:52.159Z,20.77
2023-02-14T12:13:51.869Z,20.78
2023-02-14T12:14:51.860Z,20.75
2023-02-14T12:15:51.894Z,20.76
2023-02-14T12:16:51.840Z,20.75
2023-02-14T12:17:51.833Z,20.76
2023-02-14T12:18:51.823Z,20.78
2023-02-14T12:19:51.839Z,20.77
2023-02-14T12:20:51.802Z,20.75
2023-02-14T12:21:51.796Z,20.77
2023-02-14T12:22:51.790Z,20.78
2023-02-14T12:24:51.775Z,20.77
2023-02-14T12:25:51.776Z,20.77
2023-02-14T12:26:52.166Z,20.78
2023-02-14T12:27:51.744Z,20.80
2023-02-14T12:28:51.730Z,20.78
2023-02-14T12:29:51.822Z,20.78
2023-02-14T12:30:51.825Z,20.77
2023-02-14T12:31:51.855Z,20.78
2023-02-14T12:33:51.689Z,20.79
2023-02-14T12:34:51.673Z,20.78
2023-02-14T12:35:51.699Z,20.78
2023-02-14T12:36:51.657Z,20.77
2023-02-14T12:38:02.695Z,20.77
2023-02-14T12:38:51.641Z,20.78
2023-02-14T12:39:51.636Z,20.79
2023-02-14T12:40:51.618Z,20.79
2023-02-14T12:41:51.621Z,20.78
2023-02-14T12:42:52.155Z,20.78
2023-02-14T12:43:51.592Z,20.81
2023-02-14T12:44:51.589Z,20.80
2023-02-14T12:45:51.574Z,20.80
2023-02-14T12:46:51.653Z,20.79
2023-02-14T12:47:51.560Z,20.79
2023-02-14T12:48:51.555Z,20.81
2023-02-14T12:49:51.541Z,20.80
2023-02-14T12:50:51.551Z,20.79
2023-02-14T12:51:51.550Z,20.78
2023-02-14T12:52:51.525Z,20.80
2023-02-14T12:53:51.511Z,20.77
2023-02-14T12:54:52.170Z,20.79
2023-02-14T12:55:51.486Z,20.80
2023-02-14T12:56:51.473Z,20.79
2023-02-14T12:57:51.475Z,20.79
2023-02-14T12:58:51.501Z,20.81
2023-02-14T12:59:51.451Z,20.79
2023-02-14T13:00:51.453Z,20.80
2023-02-14T13:01:51.493Z,20.81
2023-02-14T13:02:51.476Z,20.82
2023-02-14T13:03:51.440Z,20.84
2023-02-14T13:04:51.407Z,20.83
2023-02-14T13:05:51.408Z,20.81
2023-02-14T13:06:51.393Z,20.81
2023-02-14T13:07:51.403Z,20.83
2023-02-14T13:08:51.381Z,20.84
2023-02-14T13:09:51.677Z,20.83
2023-02-14T13:10:51.370Z,20.83
2023-02-14T13:11:51.344Z,20.83
2023-02-14T13:12:51.334Z,20.84
2023-02-14T13:13:52.170Z,20.83
2023-02-14T13:14:51.327Z,20.83
2023-02-14T13:15:53.057Z,20.81
2023-02-14T13:16:51.309Z,20.82
2023-02-14T13:17:51.289Z,20.82
2023-02-14T13:18:51.278Z,20.83
2023-02-14T13:19:51.278Z,20.84
2023-02-14T13:20:51.263Z,20.82
2023-02-14T13:21:51.325Z,20.84
2023-02-14T13:22:51.253Z,20.83
2023-02-14T13:23:52.211Z,20.85
2023-02-14T13:24:51.237Z,20.85
2023-02-14T13:25:51.220Z,20.85
2023-02-14T13:26:51.205Z,20.85
2023-02-14T13:27:51.205Z,20.85
2023-02-14T13:28:51.188Z,20.85
2023-02-14T13:29:51.270Z,20.84
2023-02-14T13:30:51.216Z,20.84
2023-02-14T13:31:51.294Z,20.84
2023-02-14T13:32:51.148Z,20.86
2023-02-14T13:33:51.144Z,20.84
2023-02-14T13:34:51.134Z,20.85
2023-02-14T13:35:51.125Z,20.86
2023-02-14T13:36:51.129Z,20.87
2023-02-14T13:37:51.110Z,20.88
2023-02-14T13:38:51.101Z,20.88
2023-02-14T13:39:51.114Z,20.87
2023-02-14T13:40:51.080Z,20.86
2023-02-14T13:41:51.075Z,20.87
2023-02-14T13:42:51.698Z,20.86
2023-02-14T13:43:51.058Z,20.87
2023-02-14T13:44:51.045Z,20.87
2023-02-14T13:45:51.036Z,20.87
2023-02-14T13:46:51.096Z,20.88
2023-02-14T13:47:51.020Z,20.88
2023-02-14T13:48:51.009Z,20.88
2023-02-14T13:49:51.000Z,20.90
2023-02-14T13:50:50.989Z,20.89
2023-02-14T13:51:50.980Z,20.90
2023-02-14T13:52:50.981Z,20.88